Terminal Aerodrome Forecast
Issued by NWS

Home | Current Version | Previous Version | Text Only | Print | Product List | Glossary On
Versions: 1 2 3 4 5 6 7 8 9 10 11 12 13 14 15 16 17 18 19 20 21 22 23 24 25 26 27
000
FTUS41 KOKX 291400 AAA
TAFTEB
TAF AMD
KTEB 291415Z 2914/3012 VRB04KT P6SM BKN150
     FM300000 15006KT P6SM SCT030 OVC080
     FM300200 19006KT 4SM -SN SCT025 OVC050
     FM300400 20006KT 2SM -SN OVC015
     FM301000 24004KT 2SM -SN OVC015=

USA.gov is the U.S. government's official web portal to all federal, state and local government web resources and services.